createdAt,value
2022-11-24T00:01:06.123Z,4.18
2022-11-24T00:03:33.117Z,5.57
2022-11-24T00:06:07.780Z,4.25
2022-11-24T00:08:35.696Z,5.55
2022-11-24T00:11:04.562Z,7.30
2022-11-24T00:13:32.141Z,6.75
2022-11-24T00:16:13.638Z,4.32
2022-11-24T00:18:41.708Z,3.25
2022-11-24T00:21:09.048Z,4.28
2022-11-24T00:23:36.370Z,5.88
2022-11-24T00:26:14.350Z,3.60
2022-11-24T00:28:42.109Z,5.40
2022-11-24T00:31:17.421Z,4.07
2022-11-24T00:33:45.043Z,4.53
2022-11-24T00:36:11.785Z,3.67
2022-11-24T00:38:38.525Z,4.60
2022-11-24T00:41:05.814Z,6.35
2022-11-24T00:43:33.136Z,4.82
2022-11-24T00:45:59.919Z,5.78
2022-11-24T00:48:26.885Z,4.45
2022-11-24T00:51:21.189Z,4.20
2022-11-24T00:53:48.377Z,7.38
2022-11-24T00:56:15.350Z,7.25
2022-11-24T00:58:42.123Z,5.32
2022-11-24T01:01:20.600Z,4.70
2022-11-24T01:03:47.829Z,6.82
2022-11-24T01:06:20.313Z,3.88
2022-11-24T01:08:47.756Z,8.30
2022-11-24T01:11:20.190Z,4.72
2022-11-24T01:13:50.049Z,4.32
2022-11-24T01:16:22.379Z,6.28
2022-11-24T01:18:49.471Z,5.15
2022-11-24T01:21:16.348Z,3.15
2022-11-24T01:23:43.027Z,5.63
2022-11-24T01:26:12.186Z,6.70
2022-11-24T01:28:44.870Z,5.82
2022-11-24T01:31:13.806Z,3.80
2022-11-24T01:33:40.585Z,6.78
2022-11-24T01:36:07.525Z,2.90
2022-11-24T01:38:34.184Z,6.55
2022-11-24T01:41:12.641Z,5.70
2022-11-24T01:43:40.222Z,4.53
2022-11-24T01:46:19.629Z,6.00
2022-11-24T01:49:10.880Z,4.78
2022-11-24T01:51:45.409Z,5.10
2022-11-24T01:54:18.525Z,6.63
2022-11-24T01:56:48.316Z,6.43
2022-11-24T01:59:17.415Z,5.03
2022-11-24T02:01:44.606Z,4.03
2022-11-24T02:04:14.900Z,3.88
2022-11-24T02:06:43.987Z,7.32
2022-11-24T02:09:21.651Z,6.43
2022-11-24T02:11:48.323Z,3.42
2022-11-24T02:14:17.338Z,4.65
2022-11-24T02:16:49.342Z,4.70
2022-11-24T02:19:27.351Z,4.72
2022-11-24T02:21:53.909Z,2.80
2022-11-24T02:24:30.535Z,8.27
2022-11-24T02:26:57.348Z,6.60
2022-11-24T02:29:24.083Z,3.10
2022-11-24T02:32:01.065Z,3.50
2022-11-24T02:34:27.701Z,5.25
2022-11-24T02:36:54.219Z,8.98
2022-11-24T02:39:21.320Z,4.85
2022-11-24T02:41:56.772Z,4.05
2022-11-24T02:44:28.425Z,4.65
2022-11-24T02:47:10.691Z,4.22
2022-11-24T02:49:37.320Z,5.63
2022-11-24T02:52:04.866Z,4.68
2022-11-24T02:54:32.066Z,6.07
2022-11-24T02:56:59.257Z,4.45
2022-11-24T02:59:26.071Z,4.50
2022-11-24T03:01:52.890Z,3.33
2022-11-24T03:04:19.510Z,5.38
2022-11-24T03:06:46.106Z,4.30
2022-11-24T03:09:12.686Z,4.20
2022-11-24T03:11:39.474Z,3.78
2022-11-24T03:14:06.832Z,3.72
2022-11-24T03:16:33.817Z,5.35
2022-11-24T03:19:00.513Z,5.95
2022-11-24T03:21:27.462Z,4.40
2022-11-24T03:23:54.364Z,4.47
2022-11-24T03:26:22.478Z,3.40
2022-11-24T03:28:49.359Z,5.70
2022-11-24T03:31:16.387Z,7.60
2022-11-24T03:33:43.067Z,5.97
2022-11-24T03:36:10.086Z,4.57
2022-11-24T03:38:36.928Z,4.00
2022-11-24T03:41:04.886Z,3.20
2022-11-24T03:43:31.945Z,6.25
2022-11-24T03:45:58.772Z,5.70
2022-11-24T03:48:25.931Z,3.70
2022-11-24T03:50:57.798Z,4.65
2022-11-24T03:53:26.238Z,4.68
2022-11-24T03:55:53.287Z,5.82
2022-11-24T03:58:20.464Z,3.58
2022-11-24T04:00:51.213Z,5.88
2022-11-24T04:03:19.323Z,7.80
2022-11-24T04:05:46.536Z,4.65
2022-11-24T04:08:13.711Z,5.18
2022-11-24T04:10:40.706Z,4.47
2022-11-24T04:13:15.947Z,5.43
2022-11-24T04:15:44.164Z,5.90
2022-11-24T04:18:12.034Z,3.22
2022-11-24T04:20:39.290Z,4.40
2022-11-24T04:23:06.506Z,3.85
2022-11-24T04:25:33.366Z,3.63
2022-11-24T04:28:00.035Z,4.05
2022-11-24T04:30:28.647Z,8.35
2022-11-24T04:32:56.922Z,4.32
2022-11-24T04:35:24.072Z,4.05
2022-11-24T04:37:50.703Z,3.35
2022-11-24T04:40:17.671Z,4.10
2022-11-24T04:42:44.514Z,4.45
2022-11-24T04:45:11.616Z,3.05
2022-11-24T04:47:38.371Z,5.35
2022-11-24T04:50:07.665Z,4.22
2022-11-24T04:52:34.250Z,5.82
2022-11-24T04:55:01.258Z,5.32
2022-11-24T04:57:28.259Z,7.18
2022-11-24T04:59:55.498Z,5.88
2022-11-24T05:02:22.579Z,8.15
2022-11-24T05:04:49.615Z,5.35
2022-11-24T05:07:19.353Z,5.22
2022-11-24T05:10:06.222Z,5.05
2022-11-24T05:12:32.921Z,3.38
2022-11-24T05:15:00.721Z,6.22
2022-11-24T05:17:32.977Z,3.75
2022-11-24T05:19:59.630Z,3.75
2022-11-24T05:22:28.311Z,4.30
2022-11-24T05:24:55.195Z,6.78
2022-11-24T05:27:22.033Z,4.57
2022-11-24T05:29:48.943Z,3.72
2022-11-24T05:32:15.791Z,8.60
2022-11-24T05:34:42.350Z,7.25
2022-11-24T05:37:09.387Z,9.07
2022-11-24T05:39:36.878Z,6.13
2022-11-24T05:42:25.039Z,5.10
2022-11-24T05:44:52.486Z,7.28
2022-11-24T05:47:21.434Z,7.78
2022-11-24T05:49:48.013Z,11.85
2022-11-24T05:52:15.562Z,8.65
2022-11-24T05:54:42.088Z,6.53
2022-11-24T05:57:08.637Z,7.50
2022-11-24T05:59:35.466Z,6.20
2022-11-24T06:02:02.195Z,6.47
2022-11-24T06:04:28.790Z,4.63
2022-11-24T06:06:55.556Z,9.80
2022-11-24T06:09:22.244Z,5.28
2022-11-24T06:11:48.788Z,7.60
2022-11-24T06:14:15.488Z,9.07
2022-11-24T06:16:42.270Z,6.65
2022-11-24T06:19:10.527Z,4.50
2022-11-24T06:21:37.504Z,10.50
2022-11-24T06:24:04.866Z,8.65
2022-11-24T06:26:31.814Z,5.30
2022-11-24T06:28:58.483Z,12.73
2022-11-24T06:31:25.740Z,8.55
2022-11-24T06:33:53.284Z,13.20
2022-11-24T06:36:20.431Z,7.35
2022-11-24T06:38:47.092Z,8.15
2022-11-24T06:41:15.144Z,5.95
2022-11-24T06:43:41.951Z,8.95
2022-11-24T06:46:11.671Z,10.93
2022-11-24T06:48:39.027Z,6.72
2022-11-24T06:51:08.476Z,7.78
2022-11-24T06:53:38.150Z,16.30
2022-11-24T06:56:12.157Z,7.50
2022-11-24T06:58:44.380Z,6.38
2022-11-24T07:01:16.086Z,10.02
2022-11-24T07:03:42.787Z,8.45
2022-11-24T07:06:09.400Z,10.57
2022-11-24T07:08:35.895Z,7.28
2022-11-24T07:11:11.313Z,10.15
2022-11-24T07:13:38.698Z,8.48
2022-11-24T07:16:17.188Z,7.47
2022-11-24T07:18:45.465Z,12.55
2022-11-24T07:21:12.373Z,9.95
2022-11-24T07:23:39.457Z,9.00
2022-11-24T07:26:07.684Z,9.35
2022-11-24T07:28:36.626Z,10.20
2022-11-24T07:31:11.731Z,12.13
2022-11-24T07:33:39.037Z,8.43
2022-11-24T07:36:07.173Z,6.10
2022-11-24T07:38:33.834Z,6.75
2022-11-24T07:41:06.389Z,6.53
2022-11-24T07:43:34.840Z,8.50
2022-11-24T07:46:02.145Z,7.68
2022-11-24T07:48:28.970Z,10.95
2022-11-24T07:50:58.657Z,13.85
2022-11-24T07:53:25.211Z,10.27
2022-11-24T07:55:56.197Z,9.55
2022-11-24T07:58:23.304Z,7.68
2022-11-24T08:00:50.284Z,6.78
2022-11-24T08:03:17.062Z,8.43
2022-11-24T08:06:07.740Z,9.77
2022-11-24T08:08:33.303Z,5.28
2022-11-24T08:11:11.443Z,11.13
2022-11-24T08:13:38.940Z,9.68
2022-11-24T08:16:07.988Z,11.73
2022-11-24T08:18:36.264Z,11.23
2022-11-24T08:21:03.226Z,7.75
2022-11-24T08:23:30.525Z,13.70
2022-11-24T08:26:00.544Z,11.07
2022-11-24T08:28:27.171Z,7.05
2022-11-24T08:30:53.818Z,7.25
2022-11-24T08:33:20.376Z,13.05
2022-11-24T08:35:46.886Z,18.35
2022-11-24T08:38:13.412Z,19.75
2022-11-24T08:40:39.931Z,14.45
2022-11-24T08:43:06.505Z,9.18
2022-11-24T08:45:36.720Z,10.27
2022-11-24T08:48:07.523Z,10.05
2022-11-24T08:50:35.595Z,6.15
2022-11-24T08:53:02.165Z,9.93
2022-11-24T08:55:28.816Z,13.02
2022-11-24T08:57:55.446Z,7.30
2022-11-24T09:00:23.725Z,7.15
2022-11-24T09:02:58.269Z,5.85
2022-11-24T09:05:50.529Z,9.88
2022-11-24T09:08:12.458Z,5.30
2022-11-24T09:10:38.909Z,6.07
2022-11-24T09:13:05.533Z,7.38
2022-11-24T09:15:32.010Z,7.88
2022-11-24T09:17:58.560Z,12.55
2022-11-24T09:20:25.126Z,8.73
2022-11-24T09:22:51.748Z,8.27
2022-11-24T09:25:18.496Z,7.38
2022-11-24T09:27:45.127Z,6.60
2022-11-24T09:30:12.609Z,7.65
2022-11-24T09:32:39.150Z,5.75
2022-11-24T09:35:05.916Z,6.57
2022-11-24T09:37:33.512Z,6.85
2022-11-24T09:40:00.249Z,7.28
2022-11-24T09:42:38.243Z,4.75
2022-11-24T09:45:19.859Z,6.20
2022-11-24T09:48:03.673Z,6.47
2022-11-24T09:50:39.426Z,6.10
2022-11-24T09:53:17.186Z,5.97
2022-11-24T09:55:50.339Z,6.55
2022-11-24T09:58:42.924Z,5.55
2022-11-24T10:01:18.437Z,4.88
2022-11-24T10:03:50.880Z,8.43
2022-11-24T10:06:24.962Z,5.65
2022-11-24T10:09:03.264Z,6.45
2022-11-24T10:12:00.864Z,7.38
2022-11-24T10:14:55.152Z,8.18
2022-11-24T10:17:53.265Z,5.88
2022-11-24T10:20:38.680Z,6.18
2022-11-24T10:23:25.733Z,5.57
2022-11-24T10:25:52.286Z,7.88
2022-11-24T10:28:19.111Z,4.70
2022-11-24T10:30:46.507Z,9.45
2022-11-24T10:33:19.242Z,4.65
2022-11-24T10:35:54.892Z,6.28
2022-11-24T10:38:21.776Z,6.75
2022-11-24T10:40:58.211Z,6.25
2022-11-24T10:43:28.227Z,5.32
2022-11-24T10:46:00.052Z,6.28
2022-11-24T10:48:36.097Z,4.50
2022-11-24T10:51:33.002Z,6.60
2022-11-24T10:54:12.452Z,6.03
2022-11-24T10:56:41.244Z,6.85
2022-11-24T10:59:21.375Z,5.93
2022-11-24T11:01:48.392Z,2.95
2022-11-24T11:04:26.974Z,6.35
2022-11-24T11:07:08.260Z,5.32
2022-11-24T11:09:35.095Z,5.53
2022-11-24T11:12:42.904Z,4.28
2022-11-24T11:15:29.052Z,4.40
2022-11-24T11:18:01.180Z,3.63
2022-11-24T11:20:35.242Z,4.30
2022-11-24T11:23:16.065Z,4.45
2022-11-24T11:25:43.721Z,4.32
2022-11-24T11:28:29.836Z,10.07
2022-11-24T11:31:22.179Z,5.80
2022-11-24T11:34:08.349Z,4.78
2022-11-24T11:36:47.743Z,3.97
2022-11-24T11:39:23.926Z,3.20
2022-11-24T11:41:58.704Z,7.38
2022-11-24T11:44:38.590Z,3.92
2022-11-24T11:47:36.384Z,4.18
2022-11-24T11:50:03.218Z,5.50
2022-11-24T11:52:32.670Z,4.38
2022-11-24T11:55:26.885Z,5.07
2022-11-24T11:58:05.582Z,6.90
2022-11-24T12:00:38.686Z,5.35
2022-11-24T12:03:24.073Z,4.57
2022-11-24T12:06:06.144Z,5.63
2022-11-24T12:14:41.520Z,4.18
2022-11-24T12:17:19.571Z,6.93
2022-11-24T12:19:52.200Z,3.30
2022-11-24T12:22:46.138Z,5.32
2022-11-24T12:25:33.448Z,4.95
2022-11-24T12:28:31.882Z,5.15
2022-11-24T12:36:30.381Z,5.30
2022-11-24T12:39:19.771Z,9.30
2022-11-24T12:42:09.148Z,5.10
2022-11-24T12:44:42.490Z,7.13
2022-11-24T12:47:08.350Z,5.80
2022-11-24T12:50:06.833Z,5.93
2022-11-24T12:58:09.386Z,9.50
2022-11-24T13:00:42.541Z,8.95
2022-11-24T13:03:29.262Z,4.68
2022-11-24T13:06:14.965Z,5.40
2022-11-24T13:08:41.048Z,4.38
2022-11-24T13:11:22.293Z,6.95
2022-11-24T13:21:40.770Z,5.22
2022-11-24T13:26:49.395Z,6.38
2022-11-24T13:29:27.605Z,3.67
2022-11-24T13:32:03.215Z,6.38
2022-11-24T13:34:39.430Z,4.07
2022-11-24T13:37:35.103Z,5.60
2022-11-24T13:40:31.346Z,5.85
2022-11-24T13:42:57.971Z,3.63
2022-11-24T13:45:40.156Z,2.85
2022-11-24T13:48:19.500Z,4.07
2022-11-24T13:50:55.980Z,7.57
2022-11-24T13:53:37.023Z,5.43
2022-11-24T13:56:09.427Z,7.65
2022-11-24T13:58:37.472Z,6.50
2022-11-24T14:01:28.821Z,4.20
2022-11-24T14:04:39.542Z,4.57
2022-11-24T14:07:12.644Z,7.50
2022-11-24T14:09:52.192Z,4.38
2022-11-24T14:12:23.385Z,6.40
2022-11-24T14:14:51.960Z,4.00
2022-11-24T14:17:22.344Z,4.55
2022-11-24T14:19:54.046Z,4.40
2022-11-24T14:22:31.843Z,4.38
2022-11-24T14:25:00.683Z,3.88
2022-11-24T14:27:37.054Z,2.70
2022-11-24T14:30:09.895Z,3.25
2022-11-24T14:32:37.872Z,4.28
2022-11-24T14:35:24.839Z,2.58
2022-11-24T14:37:51.827Z,4.65
2022-11-24T14:40:45.330Z,3.95
2022-11-24T14:43:30.803Z,4.03
2022-11-24T14:46:09.323Z,5.07
2022-11-24T14:48:47.474Z,7.63
2022-11-24T14:51:26.282Z,4.50
2022-11-24T14:53:59.962Z,3.35
2022-11-24T14:56:28.281Z,8.38
2022-11-24T14:58:56.184Z,3.97
2022-11-24T15:01:28.737Z,5.15
2022-11-24T15:04:46.229Z,4.90
2022-11-24T15:07:21.595Z,4.95
2022-11-24T15:09:48.203Z,3.75
2022-11-24T15:12:43.931Z,5.03
2022-11-24T15:15:13.510Z,4.43
2022-11-24T15:17:55.895Z,5.95
2022-11-24T15:20:38.231Z,4.22
2022-11-24T15:23:27.649Z,6.25
2022-11-24T15:26:17.726Z,5.65
2022-11-24T15:28:46.515Z,2.05
2022-11-24T15:31:14.441Z,6.45
2022-11-24T15:33:42.293Z,8.68
2022-11-24T15:36:09.148Z,5.72
2022-11-24T15:38:35.758Z,5.05
2022-11-24T15:41:02.604Z,7.00
2022-11-24T15:43:31.218Z,7.32
2022-11-24T15:45:59.243Z,4.47
2022-11-24T15:48:26.750Z,4.20
2022-11-24T15:50:54.172Z,5.18
2022-11-24T15:53:30.434Z,4.78
2022-11-24T15:55:57.693Z,3.50
2022-11-24T15:58:24.535Z,4.47
2022-11-24T16:00:53.404Z,6.10
2022-11-24T16:06:12.938Z,5.72
2022-11-24T16:08:39.514Z,7.50
2022-11-24T16:11:06.334Z,9.02
2022-11-24T16:13:33.079Z,7.60
2022-11-24T16:15:59.861Z,7.38
2022-11-24T16:18:26.518Z,6.93
2022-11-24T16:20:53.099Z,6.57
2022-11-24T16:23:20.446Z,6.43
2022-11-24T16:25:47.037Z,8.93
2022-11-24T16:28:13.661Z,7.45
2022-11-24T16:30:40.450Z,7.93
2022-11-24T16:33:07.083Z,7.90
2022-11-24T16:35:34.141Z,9.25
2022-11-24T16:38:00.733Z,8.98
2022-11-24T16:40:28.602Z,7.95
2022-11-24T16:42:56.267Z,9.20
2022-11-24T16:45:22.868Z,7.75
2022-11-24T16:47:49.535Z,10.65
2022-11-24T16:50:17.720Z,7.90
2022-11-24T16:52:44.269Z,11.25
2022-11-24T16:55:11.743Z,10.77
2022-11-24T16:57:38.345Z,13.73
2022-11-24T17:00:06.187Z,9.32
2022-11-24T17:02:33.973Z,11.15
2022-11-24T17:05:00.760Z,14.63
2022-11-24T17:07:27.474Z,8.60
2022-11-24T17:09:54.243Z,10.50
2022-11-24T17:12:20.884Z,8.18
2022-11-24T17:15:03.385Z,8.57
2022-11-24T17:17:34.150Z,8.70
2022-11-24T17:20:00.818Z,7.05
2022-11-24T17:22:28.037Z,9.10
2022-11-24T17:24:54.583Z,11.32
2022-11-24T17:27:21.209Z,8.05
2022-11-24T17:29:47.770Z,8.52
2022-11-24T17:32:14.370Z,13.60
2022-11-24T17:34:41.090Z,8.40
2022-11-24T17:37:07.956Z,9.68
2022-11-24T17:39:34.661Z,8.48
2022-11-24T17:42:01.229Z,7.60
2022-11-24T17:44:27.840Z,8.15
2022-11-24T17:46:54.527Z,8.48
2022-11-24T17:49:21.288Z,8.02
2022-11-24T17:51:50.436Z,7.97
2022-11-24T17:54:45.458Z,5.32
2022-11-24T17:57:04.990Z,11.35
2022-11-24T17:59:31.758Z,6.72
2022-11-24T18:01:58.454Z,6.93
2022-11-24T18:04:25.321Z,6.07
2022-11-24T18:06:51.936Z,8.32
2022-11-24T18:09:18.596Z,6.50
2022-11-24T18:11:45.281Z,7.78
2022-11-24T18:14:11.968Z,7.47
2022-11-24T18:16:38.658Z,6.60
2022-11-24T18:19:10.715Z,8.45
2022-11-24T18:21:42.210Z,6.90
2022-11-24T18:24:11.001Z,5.13
2022-11-24T18:26:38.906Z,7.95
2022-11-24T18:29:05.873Z,6.57
2022-11-24T18:31:34.373Z,8.20
2022-11-24T18:34:02.439Z,9.30
2022-11-24T18:36:30.821Z,7.28
2022-11-24T18:39:06.007Z,6.47
2022-11-24T18:41:33.027Z,6.03
2022-11-24T18:44:03.064Z,7.85
2022-11-24T18:46:29.829Z,7.18
2022-11-24T18:48:56.544Z,8.85
2022-11-24T18:51:23.544Z,9.30
2022-11-24T18:53:58.074Z,8.27
2022-11-24T18:56:25.628Z,10.82
2022-11-24T18:58:53.803Z,9.60
2022-11-24T19:01:23.158Z,8.40
2022-11-24T19:03:52.235Z,11.45
2022-11-24T19:06:32.113Z,11.30
2022-11-24T19:09:02.273Z,8.50
2022-11-24T19:11:35.259Z,10.00
2022-11-24T19:14:06.889Z,10.70
2022-11-24T19:16:34.031Z,13.63
2022-11-24T19:19:02.646Z,9.75
2022-11-24T19:21:35.350Z,14.05
2022-11-24T19:24:05.289Z,13.63
2022-11-24T19:26:33.095Z,9.35
2022-11-24T19:28:59.665Z,10.90
2022-11-24T19:31:26.447Z,10.00
2022-11-24T19:33:54.650Z,9.45
2022-11-24T19:36:23.371Z,10.32
2022-11-24T19:38:51.896Z,9.55
2022-11-24T19:41:20.536Z,10.35
2022-11-24T19:43:48.363Z,13.65
2022-11-24T19:46:18.170Z,9.63
2022-11-24T19:48:47.313Z,9.93
2022-11-24T19:51:19.307Z,9.90
2022-11-24T19:53:46.576Z,11.30
2022-11-24T19:56:16.859Z,12.35
2022-11-24T19:58:43.743Z,13.27
2022-11-24T20:01:12.086Z,10.13
2022-11-24T20:03:40.503Z,10.20
2022-11-24T20:06:09.006Z,12.82
2022-11-24T20:08:37.471Z,11.80
2022-11-24T20:11:22.209Z,12.63
2022-11-24T20:13:49.920Z,13.75
2022-11-24T20:16:19.453Z,11.23
2022-11-24T20:18:47.754Z,11.57
2022-11-24T20:21:17.638Z,9.40
2022-11-24T20:23:46.169Z,13.85
2022-11-24T20:26:19.763Z,12.23
2022-11-24T20:28:47.519Z,14.02
2022-11-24T20:31:17.031Z,13.02
2022-11-24T20:33:45.355Z,15.73
2022-11-24T20:36:17.818Z,10.40
2022-11-24T20:38:45.834Z,12.00
2022-11-24T20:41:18.782Z,11.02
2022-11-24T20:43:46.049Z,11.30
2022-11-24T20:46:22.587Z,12.55
2022-11-24T20:48:49.757Z,8.45
2022-11-24T20:51:21.531Z,11.30
2022-11-24T20:53:49.281Z,11.63
2022-11-24T20:56:19.631Z,12.70
2022-11-24T20:58:46.614Z,12.25
2022-11-24T21:01:21.740Z,12.13
2022-11-24T21:03:57.202Z,16.35
2022-11-24T21:06:24.890Z,22.48
2022-11-24T21:08:51.895Z,15.52
2022-11-24T21:11:19.596Z,14.43
2022-11-24T21:13:47.735Z,15.60
2022-11-24T21:16:30.260Z,15.52
2022-11-24T21:18:59.676Z,15.63
2022-11-24T21:21:33.451Z,11.60
2022-11-24T21:24:11.219Z,15.18
2022-11-24T21:26:39.179Z,13.90
2022-11-24T21:29:06.947Z,11.73
2022-11-24T21:31:38.452Z,13.77
2022-11-24T21:34:06.184Z,12.20
2022-11-24T21:36:35.161Z,14.25
2022-11-24T21:39:02.701Z,13.80
2022-11-24T21:41:32.402Z,11.23
2022-11-24T21:43:59.034Z,13.50
2022-11-24T21:46:26.028Z,12.68
2022-11-24T21:48:52.616Z,10.32
2022-11-24T21:51:20.915Z,14.60
2022-11-24T21:53:47.838Z,15.02
2022-11-24T21:56:19.998Z,10.93
2022-11-24T21:58:54.749Z,12.52
2022-11-24T22:01:23.705Z,13.40
2022-11-24T22:03:50.575Z,15.23
2022-11-24T22:06:19.186Z,16.27
2022-11-24T22:08:49.199Z,11.95
2022-11-24T22:11:21.390Z,13.45
2022-11-24T22:13:48.820Z,12.68
2022-11-24T22:16:18.248Z,12.43
2022-11-24T22:18:45.961Z,11.45
2022-11-24T22:21:18.438Z,12.00
2022-11-24T22:23:45.418Z,11.45
2022-11-24T22:26:15.172Z,12.00
2022-11-24T22:28:43.347Z,9.85
2022-11-24T22:31:15.785Z,12.68
2022-11-24T22:33:43.628Z,13.23
2022-11-24T22:36:11.564Z,13.00
2022-11-24T22:38:38.995Z,11.82
2022-11-24T22:41:11.398Z,11.90
2022-11-24T22:43:39.770Z,14.77
2022-11-24T22:46:15.432Z,10.13
2022-11-24T22:48:43.219Z,10.75
2022-11-24T22:51:31.521Z,12.40
2022-11-24T22:54:01.303Z,15.18
2022-11-24T22:56:28.542Z,13.48
2022-11-24T22:58:55.420Z,11.40
2022-11-24T23:01:24.070Z,10.77
2022-11-24T23:03:53.807Z,8.63
2022-11-24T23:06:22.717Z,12.85
2022-11-24T23:08:50.474Z,12.23
2022-11-24T23:11:27.365Z,11.45
2022-11-24T23:14:02.027Z,12.20
2022-11-24T23:16:29.611Z,12.02
2022-11-24T23:18:57.036Z,8.13
2022-11-24T23:21:29.068Z,8.18
2022-11-24T23:23:57.857Z,9.48
2022-11-24T23:26:31.401Z,10.73
2022-11-24T23:28:58.231Z,7.80
2022-11-24T23:31:28.686Z,11.50
2022-11-24T23:34:00.256Z,9.20
2022-11-24T23:36:28.274Z,8.35
2022-11-24T23:38:55.070Z,10.07
2022-11-24T23:41:25.181Z,9.98
2022-11-24T23:43:52.424Z,6.15
2022-11-24T23:46:23.926Z,8.48
2022-11-24T23:48:52.227Z,8.68
2022-11-24T23:51:23.866Z,13.00
2022-11-24T23:53:51.174Z,11.32
2022-11-24T23:56:23.622Z,12.20
2022-11-24T23:58:51.024Z,10.43
